Grand Rapids, MN

2:28 AM CST on February 27, 2015 (GMT -0600)
Chisholm-hibbing | Change Station
CLOSE
Current Station
Airport
Location: Hibbing,
Elevation: 1352 ft
Nearby Weather Stations
Active Advisory: Special Statement Active Notice: Record Report

Elev 1352 ft 47.39 °N, 92.84 °W | Updated 35 minutes ago

Clear
Clear
-11 °F
Feels Like -11 °F
N
0
Wind Variable Wind from North

Today
High -- | Low -- °F
--% Chance of Precip.
Yesterday
High -- | Low -- °F
Precip. -- in
6:58 AM 5:56 PM
Waxing Gibbous, 66% visible
Pressure 30.50 in
Visibility 10.0 miles
Clouds Clear
Dew Point -16 °F
Humidity 78%
Rainfall 0.00 in
Snow Depth Not available.
UV 0 out of 12
Pollen .10 out of 12
Air Quality Not available.
Flu Activity Not available.
METAR KHIB 270753Z AUTO 00000KT 10SM CLR M24/M27 A3036 RMK AO2 SLP326 T12391267

More Conditions Fewer Conditions

Pressure 30.50 in
Visibility 10.0 miles
Clouds Clear
Dew Point -16 °F
Humidity 78%
Rainfall 0.00 in
Snow Depth Not available.
UV 0 out of 12
Pollen .10 out of 12
Air Quality Not available.
Flu Activity Not available.
METAR KHIB 270753Z AUTO 00000KT 10SM CLR M24/M27 A3036 RMK AO2 SLP326 T12391267

More Conditions Fewer Conditions

10-Day Weather Forecast

Almanac

Astronomy

Feb. 27, 2015 Rise Set
Actual Time
Civil Twilight
Nautical Twilight
Astronomical Twilight
Moon
Length of Visible Light
Length of Day
Tomorrow will be .
, % of the Moon is Illuminated

Today's Extremes

State Highs State Lows

Community

WunderPhotos

Upload Photos

1,800,649 photos uploaded!

WunderBlogs® & News

Nearby

Air Quality

  Air Quality AQ Index Pollutant
Not available.

Snow Depth

Station Depth Elevation

Earthquake Activity

City Distance Mag. Time & Date
Minimum magnitude displayed is 2.5.

Coastal Water Temperatures

Place Temperature

Nearby Weather Stations

Special Statement
Statement as of 3:15 PM CST on February 26, 2015

... Cold wind chills expected tonight...

Temperatures will fall to the teens below to 20 below overnight.
Winds will be on the light side... however any occasional breeze
may drop the wind chill briefly to 25 to 30 below across the
Northland... especially just before sunrise Friday morning. If
venturing outdoors... take normal precautions against hypothermia
by wearing proper winter clothing.



315 PM CST Thu Feb 26 2015

... Cold wind chills expected tonight...

Temperatures will fall to the teens below to 20 below overnight.
Winds will be on the light side... however any occasional breeze
may drop the wind chill briefly to 25 to 30 below across the
Northland... especially just before sunrise Friday morning. If
venturing outdoors... take normal precautions against hypothermia
by wearing proper winter clothing.